createdAt,value
2024-01-06T00:00:13.184Z,6
2024-01-06T00:10:16.880Z,5
2024-01-06T00:20:14.191Z,6.3
2024-01-06T00:30:14.764Z,5.9
2024-01-06T00:40:15.077Z,6.9
2024-01-06T00:50:15.515Z,7.7
2024-01-06T01:00:15.909Z,8.1
2024-01-06T01:10:16.349Z,6.9
2024-01-06T01:20:16.767Z,6.8
2024-01-06T01:30:17.270Z,8.6
2024-01-06T01:40:17.495Z,10.9
2024-01-06T01:50:17.960Z,9.3
2024-01-06T02:00:18.432Z,8.5
2024-01-06T02:10:18.689Z,8.3
2024-01-06T02:20:19.030Z,12.2
2024-01-06T02:30:19.489Z,11.8
2024-01-06T02:40:19.877Z,9.8
2024-01-06T02:50:20.354Z,9.5
2024-01-06T03:00:20.816Z,10.2
2024-01-06T03:10:21.063Z,14
2024-01-06T03:20:21.491Z,10.5
2024-01-06T03:30:21.927Z,11.7
2024-01-06T03:40:22.281Z,9.5
2024-01-06T03:50:22.716Z,8.5
2024-01-06T04:00:23.107Z,12
2024-01-06T04:10:23.339Z,10.6
2024-01-06T04:20:23.666Z,11.7
2024-01-06T04:30:23.975Z,9.5
2024-01-06T04:40:24.172Z,10.6
2024-01-06T04:50:24.449Z,10.7
2024-01-06T05:00:24.777Z,9.3
2024-01-06T05:10:25.103Z,9.1
2024-01-06T05:20:25.607Z,6.9
2024-01-06T05:30:26.023Z,9
2024-01-06T05:40:26.293Z,7.4
2024-01-06T05:50:26.652Z,9.9
2024-01-06T06:00:27.070Z,6.2
2024-01-06T06:10:27.382Z,6.4
2024-01-06T06:20:27.691Z,6.9
2024-01-06T06:30:28.276Z,5.1
2024-01-06T06:40:28.407Z,5.1
2024-01-06T06:50:28.730Z,8.4
2024-01-06T07:00:29.093Z,6.1
2024-01-06T07:10:29.350Z,6.5
2024-01-06T07:20:29.710Z,5.3
2024-01-06T07:30:30.062Z,5
2024-01-06T07:40:30.258Z,6.1
2024-01-06T07:50:33.008Z,6.5
2024-01-06T08:00:30.931Z,6.3
2024-01-06T08:10:31.076Z,6
2024-01-06T08:20:31.402Z,8
2024-01-06T08:30:31.807Z,8.6
2024-01-06T08:40:31.957Z,6.9
2024-01-06T08:50:32.217Z,6.2
2024-01-06T09:00:32.530Z,8.2
2024-01-06T09:10:32.794Z,6.6
2024-01-06T09:20:33.155Z,7.5
2024-01-06T09:30:33.554Z,8
2024-01-06T09:40:33.849Z,6.9
2024-01-06T09:50:34.210Z,8.5
2024-01-06T10:00:34.560Z,7.6
2024-01-06T10:10:34.844Z,7.2
2024-01-06T10:20:35.177Z,7.6
2024-01-06T10:30:35.693Z,5.9
2024-01-06T10:40:36.013Z,5.1
2024-01-06T10:50:36.398Z,5.4
2024-01-06T11:00:36.899Z,7.6
2024-01-06T11:10:37.298Z,5.8
2024-01-06T11:20:37.760Z,5.6
2024-01-06T11:30:38.416Z,6.2
2024-01-06T11:40:38.633Z,5.2
2024-01-06T11:50:39.179Z,7.7
2024-01-06T12:00:39.798Z,6.3
2024-01-06T12:10:40.158Z,6.1
2024-01-06T12:20:40.626Z,8.5
2024-01-06T12:30:41.344Z,3.8
2024-01-06T12:40:41.784Z,4.8
2024-01-06T12:50:42.437Z,4.9
2024-01-06T13:00:43.121Z,5
2024-01-06T13:10:43.696Z,5.8
2024-01-06T13:20:45.487Z,3.8
2024-01-06T13:30:45.121Z,6.2
2024-01-06T13:40:45.794Z,5.1
2024-01-06T13:50:47.628Z,5.5
2024-01-06T14:00:47.343Z,3.7
2024-01-06T14:10:48.142Z,4.6
2024-01-06T14:20:49.059Z,5.3
2024-01-06T14:30:50.031Z,6.5
2024-01-06T14:40:50.837Z,4.9
2024-01-06T14:50:51.750Z,3.1
2024-01-06T15:00:52.721Z,6
2024-01-06T15:07:04.578Z,6
2024-01-06T15:10:53.617Z,15.2
2024-01-06T15:20:54.525Z,6.4
2024-01-06T15:30:55.583Z,8.3
2024-01-06T15:40:56.470Z,8.7
2024-01-06T15:50:57.412Z,11.6
2024-01-06T16:00:58.442Z,7.9
2024-01-06T16:10:59.367Z,7.3
2024-01-06T16:21:00.335Z,11.6
2024-01-06T16:31:01.526Z,12.6
2024-01-06T16:41:02.470Z,10.1
2024-01-06T16:51:03.515Z,8.1
2024-01-06T17:01:04.737Z,4.8
2024-01-06T17:11:05.823Z,8.9
2024-01-06T17:21:06.977Z,10.1
2024-01-06T17:31:08.153Z,9.3
2024-01-06T17:41:09.242Z,13.4
2024-01-06T17:51:10.340Z,9.3
2024-01-06T18:01:11.466Z,12.4
2024-01-06T18:11:12.496Z,12.1
2024-01-06T18:21:13.623Z,13.3
2024-01-06T18:31:14.911Z,18
2024-01-06T18:41:15.892Z,15.4
2024-01-06T18:51:17.058Z,12.5
2024-01-06T19:01:18.294Z,20.7
2024-01-06T19:11:19.361Z,31.4
2024-01-06T19:21:20.694Z,21.3
2024-01-06T19:31:21.632Z,24.5
2024-01-06T19:41:22.627Z,24.6
2024-01-06T19:51:23.813Z,25.3
2024-01-06T20:01:24.988Z,22.3
2024-01-06T20:11:26.087Z,24.8
2024-01-06T20:21:27.253Z,25.2
2024-01-06T20:31:28.508Z,23.2
2024-01-06T20:41:29.368Z,18
2024-01-06T20:51:30.520Z,22.5
2024-01-06T21:01:31.988Z,20.6
2024-01-06T21:11:32.913Z,20.4
2024-01-06T21:21:34.177Z,20.7
2024-01-06T21:31:35.506Z,15.6
2024-01-06T21:41:36.606Z,4.1
2024-01-06T21:51:38.014Z,6
2024-01-06T22:01:39.311Z,1.8
2024-01-06T22:11:40.482Z,2.5
2024-01-06T22:21:44.179Z,2.6
2024-01-06T22:31:43.042Z,1.5
2024-01-06T22:41:44.312Z,2.6
2024-01-06T22:51:45.607Z,1.3
2024-01-06T23:01:46.958Z,2.2
2024-01-06T23:11:49.618Z,2.6
2024-01-06T23:21:49.697Z,1.5
2024-01-06T23:31:24.835Z,1.5
2024-01-06T23:31:51.016Z,4.6
2024-01-06T23:33:20.821Z,4.6
2024-01-06T23:36:46.102Z,4.6
2024-01-06T23:37:10.109Z,4.6
2024-01-06T23:39:13.992Z,4.6
2024-01-06T23:41:52.351Z,3.6
2024-01-06T23:51:53.729Z,2.5
